sensor_id;sensor_type;location;lat;lon;timestamp;pressure;altitude;pressure_sealevel;temperature;humidity
33845;BME280;20145;43.118;25.694;2023-08-07T00:00:39;98691.22;;;21.17;87.63
33845;BME280;20145;43.118;25.694;2023-08-07T00:03:05;98699.81;;;21.20;87.97
33845;BME280;20145;43.118;25.694;2023-08-07T00:05:30;98704.84;;;21.10;86.54
33845;BME280;20145;43.118;25.694;2023-08-07T00:07:56;98701.91;;;21.14;85.69
33845;BME280;20145;43.118;25.694;2023-08-07T00:10:22;98702.22;;;21.10;85.55
33845;BME280;20145;43.118;25.694;2023-08-07T00:12:49;98709.22;;;20.97;85.28
33845;BME280;20145;43.118;25.694;2023-08-07T00:15:15;98708.25;;;20.85;84.80
33845;BME280;20145;43.118;25.694;2023-08-07T00:17:40;98704.38;;;20.90;83.64
33845;BME280;20145;43.118;25.694;2023-08-07T00:20:07;98710.66;;;20.88;85.19
33845;BME280;20145;43.118;25.694;2023-08-07T00:22:33;98712.53;;;20.86;84.45
33845;BME280;20145;43.118;25.694;2023-08-07T00:24:58;98716.31;;;20.82;84.50
33845;BME280;20145;43.118;25.694;2023-08-07T00:27:24;98718.41;;;20.89;85.67
33845;BME280;20145;43.118;25.694;2023-08-07T00:29:50;98731.28;;;20.80;84.42
33845;BME280;20145;43.118;25.694;2023-08-07T00:32:15;98737.28;;;20.82;86.90
33845;BME280;20145;43.118;25.694;2023-08-07T00:34:41;98729.63;;;20.79;88.11
33845;BME280;20145;43.118;25.694;2023-08-07T00:37:06;98726.47;;;20.74;88.56
33845;BME280;20145;43.118;25.694;2023-08-07T00:39:32;98728.88;;;20.77;87.63
33845;BME280;20145;43.118;25.694;2023-08-07T00:41:57;98739.44;;;20.75;84.91
33845;BME280;20145;43.118;25.694;2023-08-07T00:44:23;98734.13;;;20.77;85.01
33845;BME280;20145;43.118;25.694;2023-08-07T00:46:49;98734.00;;;20.78;84.72
33845;BME280;20145;43.118;25.694;2023-08-07T00:49:15;98732.00;;;20.69;85.10
33845;BME280;20145;43.118;25.694;2023-08-07T00:51:41;98731.56;;;20.62;85.22
33845;BME280;20145;43.118;25.694;2023-08-07T00:54:09;98722.84;;;20.62;83.41
33845;BME280;20145;43.118;25.694;2023-08-07T00:56:36;98742.88;;;20.63;82.42
33845;BME280;20145;43.118;25.694;2023-08-07T00:59:02;98737.28;;;20.55;83.28
33845;BME280;20145;43.118;25.694;2023-08-07T01:01:28;98741.69;;;20.54;84.26
33845;BME280;20145;43.118;25.694;2023-08-07T01:03:54;98744.47;;;20.51;84.43
33845;BME280;20145;43.118;25.694;2023-08-07T01:06:20;98744.84;;;20.45;84.19
33845;BME280;20145;43.118;25.694;2023-08-07T01:08:46;98748.84;;;20.50;83.88
33845;BME280;20145;43.118;25.694;2023-08-07T01:11:34;98751.38;;;20.52;83.88
33845;BME280;20145;43.118;25.694;2023-08-07T01:16:39;98758.50;;;20.64;83.70
33845;BME280;20145;43.118;25.694;2023-08-07T01:19:09;98747.19;;;20.49;81.81
33845;BME280;20145;43.118;25.694;2023-08-07T01:21:37;98760.47;;;20.46;83.69
33845;BME280;20145;43.118;25.694;2023-08-07T01:24:03;98754.69;;;20.56;80.64
33845;BME280;20145;43.118;25.694;2023-08-07T01:26:29;98756.00;;;20.48;81.56
33845;BME280;20145;43.118;25.694;2023-08-07T01:31:30;98760.59;;;20.31;82.88
33845;BME280;20145;43.118;25.694;2023-08-07T01:34:04;98772.59;;;20.20;82.93
33845;BME280;20145;43.118;25.694;2023-08-07T01:36:32;98773.31;;;20.22;84.10
33845;BME280;20145;43.118;25.694;2023-08-07T01:38:59;98766.88;;;20.14;82.75
33845;BME280;20145;43.118;25.694;2023-08-07T01:41:26;98765.66;;;20.05;83.47
33845;BME280;20145;43.118;25.694;2023-08-07T01:43:52;98767.88;;;20.25;84.43
33845;BME280;20145;43.118;25.694;2023-08-07T01:46:19;98762.75;;;20.24;83.68
33845;BME280;20145;43.118;25.694;2023-08-07T01:48:45;98775.31;;;20.19;84.87
33845;BME280;20145;43.118;25.694;2023-08-07T01:51:10;98780.16;;;20.11;82.18
33845;BME280;20145;43.118;25.694;2023-08-07T01:53:36;98783.63;;;20.11;83.94
33845;BME280;20145;43.118;25.694;2023-08-07T01:56:01;98785.59;;;20.08;81.80
33845;BME280;20145;43.118;25.694;2023-08-07T01:58:27;98790.66;;;20.11;82.31
33845;BME280;20145;43.118;25.694;2023-08-07T02:00:53;98791.47;;;20.11;80.52
33845;BME280;20145;43.118;25.694;2023-08-07T02:03:19;98788.41;;;20.04;82.87
33845;BME280;20145;43.118;25.694;2023-08-07T02:05:45;98782.59;;;19.99;82.43
33845;BME280;20145;43.118;25.694;2023-08-07T02:08:11;98788.22;;;20.08;81.20
33845;BME280;20145;43.118;25.694;2023-08-07T02:10:37;98782.22;;;20.05;82.11
33845;BME280;20145;43.118;25.694;2023-08-07T02:13:03;98796.66;;;19.98;81.48
33845;BME280;20145;43.118;25.694;2023-08-07T02:15:28;98802.34;;;19.91;81.19
33845;BME280;20145;43.118;25.694;2023-08-07T02:17:54;98776.47;;;19.70;83.03
33845;BME280;20145;43.118;25.694;2023-08-07T02:20:20;98799.53;;;19.79;82.28
33845;BME280;20145;43.118;25.694;2023-08-07T02:22:45;98790.72;;;19.80;82.42
33845;BME280;20145;43.118;25.694;2023-08-07T02:25:11;98796.97;;;19.78;82.65
33845;BME280;20145;43.118;25.694;2023-08-07T02:27:36;98792.94;;;19.72;82.63
33845;BME280;20145;43.118;25.694;2023-08-07T02:30:02;98795.50;;;19.74;82.25
33845;BME280;20145;43.118;25.694;2023-08-07T02:32:29;98795.31;;;19.77;82.02
33845;BME280;20145;43.118;25.694;2023-08-07T02:34:55;98798.28;;;19.71;82.46
33845;BME280;20145;43.118;25.694;2023-08-07T02:37:20;98804.13;;;19.60;84.47
33845;BME280;20145;43.118;25.694;2023-08-07T02:39:46;98803.41;;;19.72;83.47
33845;BME280;20145;43.118;25.694;2023-08-07T02:42:12;98805.16;;;19.57;82.67
33845;BME280;20145;43.118;25.694;2023-08-07T02:44:38;98812.75;;;19.62;83.14
33845;BME280;20145;43.118;25.694;2023-08-07T02:47:04;98817.22;;;19.60;83.66
33845;BME280;20145;43.118;25.694;2023-08-07T02:49:29;98819.44;;;19.52;83.32
33845;BME280;20145;43.118;25.694;2023-08-07T02:51:55;98822.88;;;19.52;82.45
33845;BME280;20145;43.118;25.694;2023-08-07T02:54:21;98829.78;;;19.53;81.34
33845;BME280;20145;43.118;25.694;2023-08-07T02:56:46;98811.53;;;19.37;82.61
33845;BME280;20145;43.118;25.694;2023-08-07T02:59:14;98826.56;;;19.34;83.52
33845;BME280;20145;43.118;25.694;2023-08-07T03:01:40;98818.88;;;19.31;82.27
33845;BME280;20145;43.118;25.694;2023-08-07T03:04:05;98824.81;;;19.34;83.75
33845;BME280;20145;43.118;25.694;2023-08-07T03:06:31;98829.88;;;19.37;83.42
33845;BME280;20145;43.118;25.694;2023-08-07T03:08:57;98827.97;;;19.39;82.26
33845;BME280;20145;43.118;25.694;2023-08-07T03:11:23;98831.94;;;19.47;83.33
33845;BME280;20145;43.118;25.694;2023-08-07T03:13:48;98830.25;;;19.46;83.34
33845;BME280;20145;43.118;25.694;2023-08-07T03:16:14;98813.22;;;19.38;83.75
33845;BME280;20145;43.118;25.694;2023-08-07T03:18:40;98836.94;;;19.35;82.68
33845;BME280;20145;43.118;25.694;2023-08-07T03:21:06;98823.25;;;19.46;82.80
33845;BME280;20145;43.118;25.694;2023-08-07T03:23:31;98832.91;;;19.60;83.48
33845;BME280;20145;43.118;25.694;2023-08-07T03:26:09;98812.22;;;19.25;82.76
33845;BME280;20145;43.118;25.694;2023-08-07T03:28:35;98842.75;;;19.41;81.83
33845;BME280;20145;43.118;25.694;2023-08-07T03:31:01;98839.63;;;19.34;82.92
33845;BME280;20145;43.118;25.694;2023-08-07T03:33:27;98843.78;;;19.38;81.93
33845;BME280;20145;43.118;25.694;2023-08-07T03:35:53;98849.09;;;19.36;82.11
33845;BME280;20145;43.118;25.694;2023-08-07T03:38:18;98857.44;;;19.43;82.36
33845;BME280;20145;43.118;25.694;2023-08-07T03:40:44;98838.94;;;19.46;82.03
33845;BME280;20145;43.118;25.694;2023-08-07T03:43:10;98838.38;;;19.41;81.52
33845;BME280;20145;43.118;25.694;2023-08-07T03:45:36;98858.69;;;19.52;81.90
33845;BME280;20145;43.118;25.694;2023-08-07T03:48:01;98849.41;;;19.46;80.98
33845;BME280;20145;43.118;25.694;2023-08-07T03:50:27;98857.06;;;19.65;83.87
33845;BME280;20145;43.118;25.694;2023-08-07T03:52:52;98845.72;;;19.65;81.18
33845;BME280;20145;43.118;25.694;2023-08-07T03:55:18;98865.88;;;19.78;81.17
33845;BME280;20145;43.118;25.694;2023-08-07T03:57:44;98867.88;;;19.89;79.69
33845;BME280;20145;43.118;25.694;2023-08-07T04:00:10;98861.16;;;19.99;80.27
33845;BME280;20145;43.118;25.694;2023-08-07T04:02:36;98868.84;;;20.17;78.79
33845;BME280;20145;43.118;25.694;2023-08-07T04:05:01;98857.06;;;20.24;79.01
33845;BME280;20145;43.118;25.694;2023-08-07T04:07:27;98868.78;;;20.47;76.59
33845;BME280;20145;43.118;25.694;2023-08-07T04:09:53;98874.41;;;20.69;75.16
33845;BME280;20145;43.118;25.694;2023-08-07T04:12:18;98864.72;;;20.99;74.88
33845;BME280;20145;43.118;25.694;2023-08-07T04:14:44;98864.97;;;21.35;73.80
33845;BME280;20145;43.118;25.694;2023-08-07T04:17:09;98860.72;;;21.47;71.73
33845;BME280;20145;43.118;25.694;2023-08-07T04:19:36;98867.59;;;21.63;69.84
33845;BME280;20145;43.118;25.694;2023-08-07T04:22:02;98872.78;;;21.90;70.70
33845;BME280;20145;43.118;25.694;2023-08-07T04:24:28;98877.88;;;22.18;69.24
33845;BME280;20145;43.118;25.694;2023-08-07T04:26:53;98879.75;;;22.03;68.02
33845;BME280;20145;43.118;25.694;2023-08-07T04:29:19;98881.94;;;21.97;67.66
33845;BME280;20145;43.118;25.694;2023-08-07T04:31:45;98882.25;;;22.05;66.89
33845;BME280;20145;43.118;25.694;2023-08-07T04:34:10;98875.09;;;21.94;67.57
33845;BME280;20145;43.118;25.694;2023-08-07T04:36:36;98872.34;;;21.70;67.42
33845;BME280;20145;43.118;25.694;2023-08-07T04:39:01;98872.09;;;21.60;68.22
33845;BME280;20145;43.118;25.694;2023-08-07T04:41:27;98862.63;;;21.58;69.38
33845;BME280;20145;43.118;25.694;2023-08-07T04:43:53;98877.81;;;21.80;69.68
33845;BME280;20145;43.118;25.694;2023-08-07T04:46:18;98862.63;;;21.98;67.76
33845;BME280;20145;43.118;25.694;2023-08-07T04:48:44;98868.19;;;22.19;66.78
33845;BME280;20145;43.118;25.694;2023-08-07T04:51:09;98881.00;;;22.36;66.48
33845;BME280;20145;43.118;25.694;2023-08-07T04:53:35;98866.41;;;22.32;66.16
33845;BME280;20145;43.118;25.694;2023-08-07T04:56:00;98889.97;;;22.59;65.36
33845;BME280;20145;43.118;25.694;2023-08-07T04:58:26;98882.19;;;22.45;65.34
33845;BME280;20145;43.118;25.694;2023-08-07T05:00:58;98885.31;;;22.63;64.64
33845;BME280;20145;43.118;25.694;2023-08-07T05:03:24;98889.44;;;22.67;63.76
33845;BME280;20145;43.118;25.694;2023-08-07T05:05:50;98887.94;;;22.50;64.85
33845;BME280;20145;43.118;25.694;2023-08-07T05:08:16;98897.72;;;22.61;64.85
33845;BME280;20145;43.118;25.694;2023-08-07T05:10:42;98892.66;;;22.70;63.48
33845;BME280;20145;43.118;25.694;2023-08-07T05:13:08;98908.00;;;22.77;64.36
33845;BME280;20145;43.118;25.694;2023-08-07T05:15:33;98915.69;;;22.92;63.46
33845;BME280;20145;43.118;25.694;2023-08-07T05:17:59;98908.22;;;22.74;64.57
33845;BME280;20145;43.118;25.694;2023-08-07T05:20:25;98914.44;;;22.98;63.76
33845;BME280;20145;43.118;25.694;2023-08-07T05:22:50;98907.88;;;22.91;62.53
33845;BME280;20145;43.118;25.694;2023-08-07T05:25:16;98917.16;;;22.84;64.02
33845;BME280;20145;43.118;25.694;2023-08-07T05:27:43;98897.06;;;22.96;63.88
33845;BME280;20145;43.118;25.694;2023-08-07T05:30:09;98911.94;;;23.21;62.66
33845;BME280;20145;43.118;25.694;2023-08-07T05:32:35;98920.22;;;23.27;62.21
33845;BME280;20145;43.118;25.694;2023-08-07T05:35:06;98920.50;;;23.35;60.91
33845;BME280;20145;43.118;25.694;2023-08-07T05:37:32;98925.91;;;23.34;60.36
33845;BME280;20145;43.118;25.694;2023-08-07T05:39:58;98919.84;;;23.45;61.15
33845;BME280;20145;43.118;25.694;2023-08-07T05:42:24;98939.09;;;23.69;59.96
33845;BME280;20145;43.118;25.694;2023-08-07T05:44:49;98936.78;;;23.53;59.47
33845;BME280;20145;43.118;25.694;2023-08-07T05:47:15;98942.88;;;23.54;60.26
33845;BME280;20145;43.118;25.694;2023-08-07T05:49:40;98941.59;;;23.59;59.87
33845;BME280;20145;43.118;25.694;2023-08-07T05:52:07;98938.41;;;23.67;59.99
33845;BME280;20145;43.118;25.694;2023-08-07T05:54:33;98927.97;;;23.66;60.00
33845;BME280;20145;43.118;25.694;2023-08-07T05:56:58;98937.19;;;23.84;59.92
33845;BME280;20145;43.118;25.694;2023-08-07T05:59:24;98937.69;;;23.89;58.01
33845;BME280;20145;43.118;25.694;2023-08-07T06:01:50;98913.00;;;23.90;57.82
33845;BME280;20145;43.118;25.694;2023-08-07T06:04:16;98930.97;;;23.96;56.46
33845;BME280;20145;43.118;25.694;2023-08-07T06:06:42;98935.88;;;23.90;57.98
33845;BME280;20145;43.118;25.694;2023-08-07T06:09:08;98932.06;;;24.05;58.36
33845;BME280;20145;43.118;25.694;2023-08-07T06:11:34;98929.19;;;23.97;56.95
33845;BME280;20145;43.118;25.694;2023-08-07T06:14:00;98925.56;;;23.87;56.87
33845;BME280;20145;43.118;25.694;2023-08-07T06:16:25;98938.25;;;23.81;57.65
33845;BME280;20145;43.118;25.694;2023-08-07T06:18:51;98933.75;;;23.95;56.90
33845;BME280;20145;43.118;25.694;2023-08-07T06:21:16;98937.72;;;24.00;56.97
33845;BME280;20145;43.118;25.694;2023-08-07T06:23:42;98939.03;;;24.06;57.81
33845;BME280;20145;43.118;25.694;2023-08-07T06:26:07;98945.41;;;24.15;56.66
33845;BME280;20145;43.118;25.694;2023-08-07T06:28:34;98944.59;;;24.25;56.61
33845;BME280;20145;43.118;25.694;2023-08-07T06:31:06;98949.53;;;24.41;55.60
33845;BME280;20145;43.118;25.694;2023-08-07T06:33:32;98948.41;;;24.57;57.29
33845;BME280;20145;43.118;25.694;2023-08-07T06:35:58;98942.28;;;24.67;56.61
33845;BME280;20145;43.118;25.694;2023-08-07T06:38:24;98941.06;;;24.71;54.77
33845;BME280;20145;43.118;25.694;2023-08-07T06:40:50;98938.81;;;24.67;56.24
33845;BME280;20145;43.118;25.694;2023-08-07T06:43:15;98946.97;;;24.64;53.07
33845;BME280;20145;43.118;25.694;2023-08-07T06:45:41;98959.66;;;24.12;54.19
33845;BME280;20145;43.118;25.694;2023-08-07T06:48:07;98959.19;;;24.18;55.02
33845;BME280;20145;43.118;25.694;2023-08-07T06:50:32;98957.75;;;23.79;54.53
33845;BME280;20145;43.118;25.694;2023-08-07T06:52:58;98965.44;;;23.82;55.01
33845;BME280;20145;43.118;25.694;2023-08-07T06:55:23;98957.00;;;24.01;53.96
33845;BME280;20145;43.118;25.694;2023-08-07T06:57:49;98969.00;;;24.16;56.06
33845;BME280;20145;43.118;25.694;2023-08-07T07:00:15;98967.50;;;24.25;54.13
33845;BME280;20145;43.118;25.694;2023-08-07T07:02:41;98956.13;;;24.36;54.41
33845;BME280;20145;43.118;25.694;2023-08-07T07:05:07;98964.22;;;24.45;54.51
33845;BME280;20145;43.118;25.694;2023-08-07T07:07:32;98960.25;;;24.51;53.06
33845;BME280;20145;43.118;25.694;2023-08-07T07:09:58;98964.06;;;24.47;53.99
33845;BME280;20145;43.118;25.694;2023-08-07T07:12:29;98972.25;;;24.55;53.38
33845;BME280;20145;43.118;25.694;2023-08-07T07:14:54;98971.59;;;24.40;53.19
33845;BME280;20145;43.118;25.694;2023-08-07T07:17:20;98965.78;;;24.48;54.04
33845;BME280;20145;43.118;25.694;2023-08-07T07:19:45;98969.16;;;24.50;55.18
33845;BME280;20145;43.118;25.694;2023-08-07T07:22:11;98964.22;;;24.68;54.62
33845;BME280;20145;43.118;25.694;2023-08-07T07:24:37;98971.34;;;24.32;52.95
33845;BME280;20145;43.118;25.694;2023-08-07T07:27:04;98971.81;;;24.26;53.14
33845;BME280;20145;43.118;25.694;2023-08-07T07:29:30;98974.56;;;24.24;54.17
33845;BME280;20145;43.118;25.694;2023-08-07T07:31:55;98973.63;;;24.25;52.94
33845;BME280;20145;43.118;25.694;2023-08-07T07:34:21;98984.53;;;24.32;52.26
33845;BME280;20145;43.118;25.694;2023-08-07T07:36:47;98979.72;;;24.26;52.41
33845;BME280;20145;43.118;25.694;2023-08-07T07:39:13;98977.41;;;24.45;52.82
33845;BME280;20145;43.118;25.694;2023-08-07T07:41:38;98973.56;;;24.49;52.36
33845;BME280;20145;43.118;25.694;2023-08-07T07:44:04;98964.72;;;24.73;51.96
33845;BME280;20145;43.118;25.694;2023-08-07T07:46:30;98977.31;;;24.92;51.39
33845;BME280;20145;43.118;25.694;2023-08-07T07:48:57;98984.16;;;24.95;49.88
33845;BME280;20145;43.118;25.694;2023-08-07T07:51:23;98983.09;;;24.86;49.88
33845;BME280;20145;43.118;25.694;2023-08-07T07:53:48;98979.22;;;25.01;50.02
33845;BME280;20145;43.118;25.694;2023-08-07T07:56:14;98992.91;;;24.84;48.86
33845;BME280;20145;43.118;25.694;2023-08-07T07:58:40;98995.06;;;24.79;49.04
33845;BME280;20145;43.118;25.694;2023-08-07T08:01:07;98991.81;;;24.53;49.00
33845;BME280;20145;43.118;25.694;2023-08-07T08:03:33;98995.88;;;24.57;49.84
33845;BME280;20145;43.118;25.694;2023-08-07T08:05:59;98983.28;;;24.60;49.06
33845;BME280;20145;43.118;25.694;2023-08-07T08:08:25;98986.63;;;24.51;48.98
33845;BME280;20145;43.118;25.694;2023-08-07T08:10:51;98989.03;;;24.54;48.80
33845;BME280;20145;43.118;25.694;2023-08-07T08:13:17;98983.94;;;24.29;48.94
33845;BME280;20145;43.118;25.694;2023-08-07T08:15:44;98983.16;;;24.51;49.55
33845;BME280;20145;43.118;25.694;2023-08-07T08:18:11;98953.72;;;24.33;49.12
33845;BME280;20145;43.118;25.694;2023-08-07T08:20:37;98973.94;;;24.56;49.60
33845;BME280;20145;43.118;25.694;2023-08-07T08:23:13;98996.50;;;24.71;50.01
33845;BME280;20145;43.118;25.694;2023-08-07T08:25:39;98985.84;;;24.84;48.60
33845;BME280;20145;43.118;25.694;2023-08-07T08:28:06;98979.34;;;24.88;49.29
33845;BME280;20145;43.118;25.694;2023-08-07T08:30:32;98978.16;;;25.04;48.96
33845;BME280;20145;43.118;25.694;2023-08-07T08:32:57;98987.75;;;25.16;48.67
33845;BME280;20145;43.118;25.694;2023-08-07T08:35:23;98980.44;;;25.31;49.03
33845;BME280;20145;43.118;25.694;2023-08-07T08:37:49;98988.63;;;25.28;48.28
33845;BME280;20145;43.118;25.694;2023-08-07T08:40:14;98976.00;;;25.20;48.37
33845;BME280;20145;43.118;25.694;2023-08-07T08:42:43;98974.94;;;24.78;47.98
33845;BME280;20145;43.118;25.694;2023-08-07T08:45:18;98958.22;;;24.77;49.60
33845;BME280;20145;43.118;25.694;2023-08-07T08:47:49;98974.19;;;25.09;50.31
33845;BME280;20145;43.118;25.694;2023-08-07T08:50:17;98981.88;;;25.35;48.14
33845;BME280;20145;43.118;25.694;2023-08-07T08:52:45;98976.72;;;25.33;47.55
33845;BME280;20145;43.118;25.694;2023-08-07T08:55:28;98974.94;;;25.23;48.90
33845;BME280;20145;43.118;25.694;2023-08-07T08:57:57;98976.34;;;25.38;48.55
33845;BME280;20145;43.118;25.694;2023-08-07T09:00:27;98983.06;;;25.42;48.37
33845;BME280;20145;43.118;25.694;2023-08-07T09:02:54;98970.34;;;25.36;47.10
33845;BME280;20145;43.118;25.694;2023-08-07T09:05:20;98954.13;;;25.41;46.82
33845;BME280;20145;43.118;25.694;2023-08-07T09:07:49;98963.81;;;25.51;46.80
33845;BME280;20145;43.118;25.694;2023-08-07T09:10:16;98954.56;;;25.57;45.89
33845;BME280;20145;43.118;25.694;2023-08-07T09:13:02;98974.84;;;25.56;45.40
33845;BME280;20145;43.118;25.694;2023-08-07T09:15:32;98970.19;;;25.49;46.62
33845;BME280;20145;43.118;25.694;2023-08-07T09:17:58;98954.47;;;25.47;46.02
33845;BME280;20145;43.118;25.694;2023-08-07T09:20:25;98965.44;;;25.75;46.52
33845;BME280;20145;43.118;25.694;2023-08-07T09:22:50;98970.19;;;25.92;45.62
33845;BME280;20145;43.118;25.694;2023-08-07T09:25:29;98979.31;;;26.20;45.08
33845;BME280;20145;43.118;25.694;2023-08-07T09:27:56;98977.44;;;26.32;45.44
33845;BME280;20145;43.118;25.694;2023-08-07T09:30:26;98978.28;;;26.33;44.07
33845;BME280;20145;43.118;25.694;2023-08-07T09:32:54;98966.25;;;26.08;43.35
33845;BME280;20145;43.118;25.694;2023-08-07T09:35:22;98978.34;;;26.00;42.92
33845;BME280;20145;43.118;25.694;2023-08-07T09:37:49;98981.75;;;25.91;41.40
33845;BME280;20145;43.118;25.694;2023-08-07T09:40:15;98972.13;;;25.90;41.29
33845;BME280;20145;43.118;25.694;2023-08-07T09:42:41;98979.59;;;25.74;42.94
33845;BME280;20145;43.118;25.694;2023-08-07T09:45:28;98979.34;;;25.88;42.28
33845;BME280;20145;43.118;25.694;2023-08-07T09:48:05;98970.53;;;25.99;42.72
33845;BME280;20145;43.118;25.694;2023-08-07T09:50:32;98972.69;;;26.05;42.39
33845;BME280;20145;43.118;25.694;2023-08-07T09:52:58;98992.38;;;26.01;42.38
33845;BME280;20145;43.118;25.694;2023-08-07T09:55:24;98981.09;;;25.99;43.63
33845;BME280;20145;43.118;25.694;2023-08-07T09:57:50;98975.75;;;26.10;42.62
33845;BME280;20145;43.118;25.694;2023-08-07T10:00:17;98981.59;;;26.25;42.87
33845;BME280;20145;43.118;25.694;2023-08-07T10:02:46;98972.16;;;26.32;42.54
33845;BME280;20145;43.118;25.694;2023-08-07T10:05:13;98977.19;;;26.35;41.81
33845;BME280;20145;43.118;25.694;2023-08-07T10:07:39;98973.25;;;26.30;42.08
33845;BME280;20145;43.118;25.694;2023-08-07T10:10:06;98978.59;;;26.39;42.84
33845;BME280;20145;43.118;25.694;2023-08-07T10:12:32;98976.28;;;26.46;40.53
33845;BME280;20145;43.118;25.694;2023-08-07T10:15:01;98967.66;;;26.44;39.72
33845;BME280;20145;43.118;25.694;2023-08-07T10:17:27;98971.81;;;26.46;40.53
33845;BME280;20145;43.118;25.694;2023-08-07T10:19:54;98946.34;;;26.45;41.12
33845;BME280;20145;43.118;25.694;2023-08-07T10:22:25;98949.53;;;26.49;40.90
33845;BME280;20145;43.118;25.694;2023-08-07T10:24:53;98973.47;;;26.59;41.17
33845;BME280;20145;43.118;25.694;2023-08-07T10:27:20;98969.91;;;26.69;41.39
33845;BME280;20145;43.118;25.694;2023-08-07T10:29:48;98960.59;;;26.75;40.59
33845;BME280;20145;43.118;25.694;2023-08-07T10:32:15;98967.16;;;26.81;39.78
33845;BME280;20145;43.118;25.694;2023-08-07T10:34:52;98969.44;;;26.95;40.26
33845;BME280;20145;43.118;25.694;2023-08-07T10:37:41;98966.91;;;26.93;39.45
33845;BME280;20145;43.118;25.694;2023-08-07T10:40:09;98961.22;;;26.98;40.67
33845;BME280;20145;43.118;25.694;2023-08-07T10:42:58;98961.00;;;27.11;39.21
33845;BME280;20145;43.118;25.694;2023-08-07T10:45:26;98954.56;;;27.04;39.06
33845;BME280;20145;43.118;25.694;2023-08-07T10:48:01;98951.81;;;27.15;39.16
33845;BME280;20145;43.118;25.694;2023-08-07T10:50:29;98957.59;;;26.99;38.31
33845;BME280;20145;43.118;25.694;2023-08-07T10:52:55;98957.75;;;26.98;38.65
33845;BME280;20145;43.118;25.694;2023-08-07T10:55:21;98955.38;;;27.04;38.81
33845;BME280;20145;43.118;25.694;2023-08-07T10:57:49;98960.53;;;26.96;40.13
33845;BME280;20145;43.118;25.694;2023-08-07T11:00:14;98956.22;;;26.95;39.55
33845;BME280;20145;43.118;25.694;2023-08-07T11:02:41;98965.41;;;26.91;38.64
33845;BME280;20145;43.118;25.694;2023-08-07T11:05:08;98951.31;;;26.90;39.56
33845;BME280;20145;43.118;25.694;2023-08-07T11:07:34;98952.19;;;27.01;39.03
33845;BME280;20145;43.118;25.694;2023-08-07T11:10:00;98962.75;;;26.91;39.38
33845;BME280;20145;43.118;25.694;2023-08-07T11:12:27;98951.22;;;26.71;39.13
33845;BME280;20145;43.118;25.694;2023-08-07T11:14:53;98942.25;;;26.93;40.25
33845;BME280;20145;43.118;25.694;2023-08-07T11:17:24;98950.19;;;27.24;39.91
33845;BME280;20145;43.118;25.694;2023-08-07T11:19:51;98958.00;;;27.25;39.64
33845;BME280;20145;43.118;25.694;2023-08-07T11:22:17;98946.41;;;27.17;40.00
33845;BME280;20145;43.118;25.694;2023-08-07T11:24:43;98936.84;;;27.04;38.39
33845;BME280;20145;43.118;25.694;2023-08-07T11:27:09;98937.63;;;27.16;38.25
33845;BME280;20145;43.118;25.694;2023-08-07T11:29:35;98923.59;;;27.04;38.74
33845;BME280;20145;43.118;25.694;2023-08-07T11:32:02;98940.13;;;27.18;40.15
33845;BME280;20145;43.118;25.694;2023-08-07T11:34:27;98935.81;;;27.26;39.27
33845;BME280;20145;43.118;25.694;2023-08-07T11:36:53;98933.88;;;27.28;38.90
33845;BME280;20145;43.118;25.694;2023-08-07T11:39:20;98946.72;;;27.33;38.07
33845;BME280;20145;43.118;25.694;2023-08-07T11:41:46;98940.00;;;27.29;37.74
33845;BME280;20145;43.118;25.694;2023-08-07T11:44:13;98925.53;;;27.33;37.85
33845;BME280;20145;43.118;25.694;2023-08-07T11:46:40;98931.97;;;27.50;38.17
33845;BME280;20145;43.118;25.694;2023-08-07T11:49:05;98920.78;;;27.46;37.11
33845;BME280;20145;43.118;25.694;2023-08-07T11:51:33;98941.03;;;27.57;37.55
33845;BME280;20145;43.118;25.694;2023-08-07T11:53:59;98952.63;;;27.56;38.17
33845;BME280;20145;43.118;25.694;2023-08-07T11:56:24;98919.13;;;27.35;39.22
33845;BME280;20145;43.118;25.694;2023-08-07T11:58:51;98947.47;;;27.64;38.93
33845;BME280;20145;43.118;25.694;2023-08-07T12:01:20;98936.16;;;27.62;39.10
33845;BME280;20145;43.118;25.694;2023-08-07T12:03:54;98937.00;;;27.72;38.18
33845;BME280;20145;43.118;25.694;2023-08-07T12:06:21;98920.69;;;27.77;37.39
33845;BME280;20145;43.118;25.694;2023-08-07T12:08:49;98934.78;;;27.77;35.95
33845;BME280;20145;43.118;25.694;2023-08-07T12:11:16;98935.34;;;27.71;36.82
33845;BME280;20145;43.118;25.694;2023-08-07T12:13:43;98917.03;;;27.49;36.42
33845;BME280;20145;43.118;25.694;2023-08-07T12:16:10;98924.84;;;27.70;36.26
33845;BME280;20145;43.118;25.694;2023-08-07T12:18:46;98920.38;;;27.70;38.18
33845;BME280;20145;43.118;25.694;2023-08-07T12:21:22;98933.53;;;27.72;36.43
33845;BME280;20145;43.118;25.694;2023-08-07T12:23:51;98929.06;;;27.72;37.38
33845;BME280;20145;43.118;25.694;2023-08-07T12:26:17;98935.88;;;27.75;36.75
33845;BME280;20145;43.118;25.694;2023-08-07T12:28:43;98933.41;;;27.83;36.32
33845;BME280;20145;43.118;25.694;2023-08-07T12:31:09;98934.09;;;27.85;35.98
33845;BME280;20145;43.118;25.694;2023-08-07T12:33:35;98946.50;;;27.85;36.08
33845;BME280;20145;43.118;25.694;2023-08-07T12:36:01;98939.38;;;27.75;35.39
33845;BME280;20145;43.118;25.694;2023-08-07T12:38:27;98944.69;;;27.75;36.39
33845;BME280;20145;43.118;25.694;2023-08-07T12:40:53;98951.13;;;27.83;35.67
33845;BME280;20145;43.118;25.694;2023-08-07T12:43:20;98919.44;;;27.71;35.43
33845;BME280;20145;43.118;25.694;2023-08-07T12:45:45;98947.75;;;27.90;35.77
33845;BME280;20145;43.118;25.694;2023-08-07T12:48:11;98944.44;;;27.88;35.02
33845;BME280;20145;43.118;25.694;2023-08-07T12:50:37;98945.28;;;27.89;35.12
33845;BME280;20145;43.118;25.694;2023-08-07T12:53:03;98952.25;;;27.90;34.97